createdAt,value
2018-06-20T00:00:19.498Z,13.95
2018-06-20T00:01:19.972Z,13.93
2018-06-20T00:02:20.460Z,13.90
2018-06-20T00:03:20.920Z,13.88
2018-06-20T00:04:21.395Z,13.87
2018-06-20T00:05:21.865Z,13.86
2018-06-20T00:06:22.338Z,13.83
2018-06-20T00:07:22.930Z,13.82
2018-06-20T00:08:23.283Z,13.80
2018-06-20T00:09:23.756Z,13.77
2018-06-20T00:10:24.227Z,13.75
2018-06-20T00:11:24.704Z,13.74
2018-06-20T00:12:25.172Z,13.72
2018-06-20T00:13:25.644Z,13.70
2018-06-20T00:14:26.115Z,13.68
2018-06-20T00:15:26.587Z,13.66
2018-06-20T00:16:27.057Z,13.64
2018-06-20T00:17:27.582Z,13.60
2018-06-20T00:18:28.001Z,13.60
2018-06-20T00:19:28.473Z,13.58
2018-06-20T00:20:28.945Z,13.56
2018-06-20T00:21:29.414Z,13.52
2018-06-20T00:22:29.888Z,13.50
2018-06-20T00:23:30.358Z,13.49
2018-06-20T00:24:30.829Z,13.46
2018-06-20T00:25:31.299Z,13.44
2018-06-20T00:26:31.769Z,13.42
2018-06-20T00:27:32.241Z,13.41
2018-06-20T00:28:32.711Z,13.38
2018-06-20T00:29:33.182Z,13.37
2018-06-20T00:30:33.654Z,13.34
2018-06-20T00:31:34.127Z,13.33
2018-06-20T00:32:34.647Z,13.31
2018-06-20T00:33:35.068Z,13.28
2018-06-20T00:34:35.539Z,13.27
2018-06-20T00:35:36.014Z,13.24
2018-06-20T00:36:36.483Z,13.22
2018-06-20T00:37:36.956Z,13.20
2018-06-20T00:38:37.428Z,13.18
2018-06-20T00:39:37.899Z,13.16
2018-06-20T00:40:38.370Z,13.14
2018-06-20T00:41:38.845Z,13.12
2018-06-20T00:42:39.368Z,13.11
2018-06-20T00:43:39.791Z,13.08
2018-06-20T00:44:40.262Z,13.06
2018-06-20T00:45:40.738Z,13.03
2018-06-20T00:46:41.210Z,13.01
2018-06-20T00:47:41.685Z,13.00
2018-06-20T00:48:42.158Z,12.98
2018-06-20T00:49:42.631Z,12.95
2018-06-20T00:50:43.108Z,12.93
2018-06-20T00:51:43.581Z,12.90
2018-06-20T00:52:44.054Z,12.89
2018-06-20T00:53:44.533Z,12.86
2018-06-20T00:54:45.006Z,12.84
2018-06-20T00:55:45.481Z,12.82
2018-06-20T00:56:45.954Z,12.81
2018-06-20T00:57:46.429Z,12.79
2018-06-20T00:58:46.904Z,12.77
2018-06-20T00:59:47.380Z,12.75
2018-06-20T01:00:47.854Z,12.74
2018-06-20T01:01:48.328Z,12.71
2018-06-20T01:02:48.854Z,12.70
2018-06-20T01:03:49.282Z,12.69
2018-06-20T01:04:49.753Z,12.67
2018-06-20T01:05:50.226Z,12.66
2018-06-20T01:06:50.704Z,12.64
2018-06-20T01:07:51.178Z,12.64
2018-06-20T01:08:51.651Z,12.62
2018-06-20T01:09:52.125Z,12.59
2018-06-20T01:10:52.599Z,12.60
2018-06-20T01:11:53.199Z,12.57
2018-06-20T01:12:53.597Z,12.57
2018-06-20T01:13:54.022Z,12.54
2018-06-20T01:14:54.500Z,12.54
2018-06-20T01:15:54.966Z,12.53
2018-06-20T01:17:55.912Z,12.50
2018-06-20T01:18:56.386Z,12.50
2018-06-20T01:19:56.858Z,12.48
2018-06-20T01:20:57.332Z,12.46
2018-06-20T01:21:57.804Z,12.46
2018-06-20T01:22:58.327Z,12.44
2018-06-20T01:23:58.753Z,12.42
2018-06-20T01:24:59.221Z,12.41
2018-06-20T01:25:59.693Z,12.40
2018-06-20T01:27:00.165Z,12.38
2018-06-20T01:28:00.637Z,12.37
2018-06-20T01:29:01.108Z,12.36
2018-06-20T01:30:01.581Z,12.36
2018-06-20T01:31:02.052Z,12.32
2018-06-20T01:32:02.522Z,12.33
2018-06-20T01:33:03.044Z,12.32
2018-06-20T01:34:03.467Z,12.30
2018-06-20T01:35:03.937Z,12.28
2018-06-20T01:36:04.407Z,12.28
2018-06-20T01:37:04.879Z,12.27
2018-06-20T01:38:05.408Z,12.26
2018-06-20T01:39:05.818Z,12.24
2018-06-20T01:40:06.289Z,12.24
2018-06-20T01:41:06.760Z,12.22
2018-06-20T01:42:07.233Z,12.21
2018-06-20T01:43:07.753Z,12.20
2018-06-20T01:44:08.174Z,12.18
2018-06-20T01:45:08.645Z,12.18
2018-06-20T01:46:09.140Z,12.16
2018-06-20T01:47:09.589Z,12.16
2018-06-20T01:48:10.110Z,12.14
2018-06-20T01:49:10.538Z,12.14
2018-06-20T01:50:11.005Z,12.12
2018-06-20T01:51:11.476Z,12.12
2018-06-20T01:52:11.948Z,12.10
2018-06-20T01:53:12.470Z,12.09
2018-06-20T01:54:12.892Z,12.08
2018-06-20T01:55:13.365Z,12.08
2018-06-20T01:56:13.840Z,12.07
2018-06-20T01:57:14.310Z,12.06
2018-06-20T01:58:14.837Z,12.04
2018-06-20T01:59:15.261Z,12.03
2018-06-20T02:00:15.730Z,12.01
2018-06-20T02:01:16.204Z,12.00
2018-06-20T02:02:16.677Z,12.00
2018-06-20T02:03:17.152Z,11.98
2018-06-20T02:04:17.628Z,11.98
2018-06-20T02:05:18.100Z,11.96
2018-06-20T02:06:18.580Z,11.96
2018-06-20T02:07:19.050Z,11.94
2018-06-20T02:08:19.527Z,11.92
2018-06-20T02:09:20.001Z,11.92
2018-06-20T02:10:20.474Z,11.90
2018-06-20T02:11:20.950Z,11.90
2018-06-20T02:12:21.424Z,11.90
2018-06-20T02:13:21.949Z,11.89
2018-06-20T02:14:22.375Z,11.87
2018-06-20T02:15:22.848Z,11.86
2018-06-20T02:16:23.323Z,11.84
2018-06-20T02:17:23.798Z,11.83
2018-06-20T02:18:24.272Z,11.82
2018-06-20T02:19:24.746Z,11.82
2018-06-20T02:20:25.226Z,11.80
2018-06-20T02:21:25.695Z,11.79
2018-06-20T02:22:26.169Z,11.78
2018-06-20T02:23:26.694Z,11.77
2018-06-20T02:24:27.122Z,11.76
2018-06-20T02:25:27.588Z,11.74
2018-06-20T02:26:28.063Z,11.72
2018-06-20T02:27:28.539Z,11.72
2018-06-20T02:28:29.010Z,11.70
2018-06-20T02:29:29.482Z,11.69
2018-06-20T02:30:29.957Z,11.67
2018-06-20T02:31:30.439Z,11.65
2018-06-20T02:32:30.901Z,11.64
2018-06-20T02:33:31.373Z,11.63
2018-06-20T02:34:31.845Z,11.62
2018-06-20T02:35:32.319Z,11.61
2018-06-20T02:36:32.802Z,11.60
2018-06-20T02:37:33.259Z,11.57
2018-06-20T02:38:33.736Z,11.57
2018-06-20T02:39:34.208Z,11.56
2018-06-20T02:40:34.676Z,11.55
2018-06-20T02:41:35.145Z,11.53
2018-06-20T02:42:35.619Z,11.52
2018-06-20T02:43:36.090Z,11.50
2018-06-20T02:44:36.560Z,11.50
2018-06-20T02:45:37.030Z,11.48
2018-06-20T02:46:37.505Z,11.48
2018-06-20T02:47:37.973Z,11.46
2018-06-20T02:48:38.444Z,11.44
2018-06-20T02:49:38.913Z,11.44
2018-06-20T02:50:39.384Z,11.42
2018-06-20T02:51:39.855Z,11.42
2018-06-20T02:52:40.350Z,11.40
2018-06-20T02:53:40.846Z,11.39
2018-06-20T02:54:41.268Z,11.38
2018-06-20T02:55:41.739Z,11.39
2018-06-20T02:56:42.214Z,11.38
2018-06-20T02:57:42.681Z,11.35
2018-06-20T02:58:43.154Z,11.36
2018-06-20T02:59:43.628Z,11.34
2018-06-20T03:00:44.097Z,11.33
2018-06-20T03:01:44.568Z,11.32
2018-06-20T03:02:45.042Z,11.32
2018-06-20T03:03:45.563Z,11.30
2018-06-20T03:04:45.988Z,11.29
2018-06-20T03:05:46.457Z,11.28
2018-06-20T03:06:46.930Z,11.25
2018-06-20T03:07:47.404Z,11.25
2018-06-20T03:08:47.927Z,11.24
2018-06-20T03:09:48.351Z,11.24
2018-06-20T03:10:48.823Z,11.22
2018-06-20T03:11:49.298Z,11.22
2018-06-20T03:12:49.771Z,11.21
2018-06-20T03:13:50.294Z,11.20
2018-06-20T03:14:50.719Z,11.19
2018-06-20T03:15:51.192Z,11.16
2018-06-20T03:16:51.668Z,11.16
2018-06-20T03:17:52.141Z,11.16
2018-06-20T03:18:52.667Z,11.16
2018-06-20T03:19:53.096Z,11.13
2018-06-20T03:20:53.565Z,11.14
2018-06-20T03:21:54.039Z,11.12
2018-06-20T03:22:54.516Z,11.12
2018-06-20T03:23:54.991Z,11.11
2018-06-20T03:24:55.467Z,11.10
2018-06-20T03:25:55.939Z,11.09
2018-06-20T03:26:56.415Z,11.08
2018-06-20T03:27:56.889Z,11.06
2018-06-20T03:28:57.364Z,11.07
2018-06-20T03:29:57.840Z,11.06
2018-06-20T03:30:58.312Z,11.06
2018-06-20T03:31:58.787Z,11.04
2018-06-20T03:32:59.261Z,11.04
2018-06-20T03:33:59.787Z,11.04
2018-06-20T03:35:00.208Z,11.04
2018-06-20T03:36:00.681Z,11.02
2018-06-20T03:37:01.153Z,11.02
2018-06-20T03:38:01.628Z,11.01
2018-06-20T03:39:02.107Z,11.00
2018-06-20T03:40:02.576Z,10.99
2018-06-20T03:41:03.048Z,10.98
2018-06-20T03:42:03.524Z,10.96
2018-06-20T03:43:03.992Z,10.96
2018-06-20T03:44:04.464Z,10.96
2018-06-20T03:45:04.937Z,10.94
2018-06-20T03:46:05.408Z,10.96
2018-06-20T03:47:05.881Z,10.97
2018-06-20T03:48:06.350Z,10.98
2018-06-20T03:49:06.823Z,10.98
2018-06-20T03:50:07.296Z,10.97
2018-06-20T03:51:07.767Z,10.97
2018-06-20T03:52:08.238Z,10.96
2018-06-20T03:53:08.709Z,10.98
2018-06-20T03:54:09.256Z,10.96
2018-06-20T03:55:09.654Z,10.98
2018-06-20T03:56:10.122Z,10.98
2018-06-20T03:57:10.594Z,11.00
2018-06-20T03:58:11.064Z,11.02
2018-06-20T03:59:11.585Z,11.03
2018-06-20T04:00:12.010Z,11.03
2018-06-20T04:01:12.478Z,11.02
2018-06-20T04:02:12.978Z,11.02
2018-06-20T04:03:13.422Z,11.04
2018-06-20T04:04:13.893Z,11.07
2018-06-20T04:05:14.364Z,11.09
2018-06-20T04:06:14.833Z,11.09
2018-06-20T04:07:15.306Z,11.12
2018-06-20T04:08:15.780Z,11.12
2018-06-20T04:09:16.249Z,11.16
2018-06-20T04:10:16.721Z,11.17
2018-06-20T04:11:17.194Z,11.19
2018-06-20T04:12:17.670Z,11.22
2018-06-20T04:13:18.139Z,11.24
2018-06-20T04:14:18.664Z,11.27
2018-06-20T04:15:19.086Z,11.29
2018-06-20T04:16:19.561Z,11.32
2018-06-20T04:17:20.061Z,11.35
2018-06-20T04:18:20.512Z,11.38
2018-06-20T04:19:21.034Z,11.40
2018-06-20T04:20:21.455Z,11.42
2018-06-20T04:21:21.930Z,11.46
2018-06-20T04:22:22.405Z,11.49
2018-06-20T04:23:22.880Z,11.51
2018-06-20T04:24:23.357Z,11.56
2018-06-20T04:25:23.831Z,11.60
2018-06-20T04:26:24.303Z,11.62
2018-06-20T04:27:24.778Z,11.65
2018-06-20T04:28:25.459Z,11.70
2018-06-20T04:29:25.781Z,11.73
2018-06-20T04:30:26.211Z,11.76
2018-06-20T04:31:26.682Z,11.81
2018-06-20T04:32:27.157Z,11.84
2018-06-20T04:33:27.633Z,11.88
2018-06-20T04:34:28.108Z,11.94
2018-06-20T04:35:28.592Z,11.96
2018-06-20T04:36:29.102Z,12.00
2018-06-20T04:37:29.535Z,12.06
2018-06-20T04:38:30.019Z,12.10
2018-06-20T04:39:30.487Z,12.13
2018-06-20T04:40:30.970Z,12.17
2018-06-20T04:41:31.436Z,12.22
2018-06-20T04:42:31.909Z,12.28
2018-06-20T04:43:32.389Z,12.32
2018-06-20T04:44:32.943Z,12.36
2018-06-20T04:45:33.337Z,12.42
2018-06-20T04:46:33.807Z,12.45
2018-06-20T04:47:34.283Z,12.50
2018-06-20T04:48:34.758Z,12.55
2018-06-20T04:49:35.232Z,12.60
2018-06-20T04:50:35.704Z,12.65
2018-06-20T04:51:36.180Z,12.70
2018-06-20T04:52:36.656Z,12.74
2018-06-20T04:53:37.126Z,12.80
2018-06-20T04:54:37.651Z,12.85
2018-06-20T04:55:38.137Z,12.90
2018-06-20T04:56:38.549Z,12.94
2018-06-20T04:57:39.021Z,13.01
2018-06-20T04:58:39.494Z,13.06
2018-06-20T04:59:40.017Z,13.12
2018-06-20T05:00:40.442Z,13.16
2018-06-20T05:01:40.914Z,13.22
2018-06-20T05:02:41.385Z,13.27
2018-06-20T05:03:41.859Z,13.34
2018-06-20T05:04:42.383Z,13.38
2018-06-20T05:05:42.807Z,13.42
2018-06-20T05:06:43.282Z,13.48
2018-06-20T05:07:43.749Z,13.53
2018-06-20T05:08:44.226Z,13.59
2018-06-20T05:09:44.694Z,13.64
2018-06-20T05:10:45.167Z,13.70
2018-06-20T05:11:45.640Z,13.74
2018-06-20T05:12:46.113Z,13.81
2018-06-20T05:13:46.582Z,13.85
2018-06-20T05:14:47.054Z,13.90
2018-06-20T05:15:47.527Z,13.96
2018-06-20T05:16:47.999Z,14.02
2018-06-20T05:17:48.470Z,14.08
2018-06-20T05:18:48.939Z,14.12
2018-06-20T05:19:49.465Z,14.18
2018-06-20T05:20:49.884Z,14.22
2018-06-20T05:21:50.358Z,14.28
2018-06-20T05:22:50.829Z,14.34
2018-06-20T05:23:51.300Z,14.38
2018-06-20T05:24:51.825Z,14.45
2018-06-20T05:25:52.247Z,14.50
2018-06-20T05:26:52.717Z,14.57
2018-06-20T05:27:53.191Z,14.61
2018-06-20T05:28:53.663Z,14.66
2018-06-20T05:29:54.136Z,14.73
2018-06-20T05:30:54.612Z,14.79
2018-06-20T05:31:55.082Z,14.84
2018-06-20T05:32:55.571Z,14.88
2018-06-20T05:33:56.031Z,14.96
2018-06-20T05:34:56.559Z,15.01
2018-06-20T05:35:56.980Z,15.07
2018-06-20T05:36:57.454Z,15.12
2018-06-20T05:37:57.932Z,15.18
2018-06-20T05:38:58.407Z,15.25
2018-06-20T05:39:58.928Z,15.30
2018-06-20T05:40:59.355Z,15.35
2018-06-20T05:41:59.829Z,15.41
2018-06-20T05:43:00.306Z,15.46
2018-06-20T05:44:00.782Z,15.53
2018-06-20T05:45:01.258Z,15.58
2018-06-20T05:46:01.740Z,15.64
2018-06-20T05:47:02.211Z,15.69
2018-06-20T05:48:02.689Z,15.74
2018-06-20T05:49:03.164Z,15.79
2018-06-20T05:50:03.644Z,15.86
2018-06-20T05:51:04.117Z,15.92
2018-06-20T05:52:04.594Z,15.96
2018-06-20T05:53:05.078Z,16.02
2018-06-20T05:54:05.552Z,16.08
2018-06-20T05:55:06.077Z,16.14
2018-06-20T05:56:06.501Z,16.19
2018-06-20T05:57:06.977Z,16.26
2018-06-20T05:58:07.455Z,16.31
2018-06-20T05:59:07.929Z,16.38
2018-06-20T06:00:08.456Z,16.45
2018-06-20T06:01:08.884Z,16.50
2018-06-20T06:02:09.361Z,16.56
2018-06-20T06:03:09.836Z,16.62
2018-06-20T06:04:10.311Z,16.66
2018-06-20T06:05:10.870Z,16.73
2018-06-20T06:06:11.267Z,16.78
2018-06-20T06:07:11.743Z,16.84
2018-06-20T06:08:12.218Z,16.90
2018-06-20T06:09:12.694Z,16.95
2018-06-20T06:10:13.171Z,17.03
2018-06-20T06:11:13.648Z,17.07
2018-06-20T06:12:14.127Z,17.13
2018-06-20T06:13:14.614Z,17.18
2018-06-20T06:14:15.076Z,17.26
2018-06-20T06:15:15.556Z,17.30
2018-06-20T06:16:16.026Z,17.37
2018-06-20T06:17:16.503Z,17.42
2018-06-20T06:18:16.978Z,17.48
2018-06-20T06:19:17.452Z,17.54
2018-06-20T06:20:17.930Z,17.60
2018-06-20T06:21:18.406Z,17.66
2018-06-20T06:22:18.881Z,17.71
2018-06-20T06:23:19.413Z,17.76
2018-06-20T06:24:19.839Z,17.83
2018-06-20T06:25:20.304Z,17.87
2018-06-20T06:26:20.781Z,17.92
2018-06-20T06:27:21.254Z,17.97
2018-06-20T06:28:21.729Z,18.03
2018-06-20T06:29:22.205Z,18.10
2018-06-20T06:30:22.680Z,18.15
2018-06-20T06:31:23.160Z,18.21
2018-06-20T06:32:23.630Z,18.26
2018-06-20T06:33:24.306Z,18.31
2018-06-20T06:34:24.581Z,18.35
2018-06-20T06:35:25.053Z,18.42
2018-06-20T06:36:25.529Z,18.47
2018-06-20T06:37:26.178Z,18.53
2018-06-20T06:38:26.482Z,18.59
2018-06-20T06:39:26.953Z,18.64
2018-06-20T06:40:27.480Z,18.71
2018-06-20T06:41:27.903Z,18.75
2018-06-20T06:42:28.378Z,18.80
2018-06-20T06:43:28.852Z,18.86
2018-06-20T06:44:29.327Z,18.90
2018-06-20T06:45:29.806Z,18.98
2018-06-20T06:46:30.279Z,19.02
2018-06-20T06:47:30.751Z,19.10
2018-06-20T06:48:31.225Z,19.15
2018-06-20T06:49:31.707Z,19.20
2018-06-20T06:50:32.226Z,19.26
2018-06-20T06:51:32.649Z,19.32
2018-06-20T06:52:33.128Z,19.37
2018-06-20T06:53:33.599Z,19.42
2018-06-20T06:54:34.073Z,19.48
2018-06-20T06:55:34.597Z,19.54
2018-06-20T06:56:35.020Z,19.60
2018-06-20T06:57:35.496Z,19.65
2018-06-20T06:58:35.974Z,19.69
2018-06-20T06:59:36.445Z,19.75
2018-06-20T07:00:36.971Z,19.82
2018-06-20T07:01:37.393Z,19.88
2018-06-20T07:02:37.906Z,19.93
2018-06-20T07:03:38.342Z,19.98
2018-06-20T07:04:38.817Z,20.03
2018-06-20T07:05:39.320Z,20.10
2018-06-20T07:06:39.778Z,20.14
2018-06-20T07:07:40.240Z,20.20
2018-06-20T07:08:40.714Z,20.26
2018-06-20T07:09:41.190Z,20.31
2018-06-20T07:10:41.715Z,20.38
2018-06-20T07:11:42.138Z,20.44
2018-06-20T07:12:42.635Z,20.47
2018-06-20T07:13:43.089Z,20.55
2018-06-20T07:14:43.562Z,20.61
2018-06-20T07:15:44.085Z,20.65
2018-06-20T07:16:44.511Z,20.71
2018-06-20T07:17:44.985Z,20.77
2018-06-20T07:18:45.460Z,20.83
2018-06-20T07:19:45.934Z,20.88
2018-06-20T07:20:46.460Z,20.93
2018-06-20T07:21:46.884Z,20.98
2018-06-20T07:22:47.363Z,21.03
2018-06-20T07:23:47.831Z,21.08
2018-06-20T07:24:48.306Z,21.14
2018-06-20T07:25:49.034Z,21.21
2018-06-20T07:26:49.257Z,21.25
2018-06-20T07:27:49.731Z,21.30
2018-06-20T07:28:50.205Z,21.36
2018-06-20T07:29:50.697Z,21.41
2018-06-20T07:30:51.207Z,21.46
2018-06-20T07:31:51.628Z,21.52
2018-06-20T07:32:52.109Z,21.56
2018-06-20T07:33:52.577Z,21.62
2018-06-20T07:34:53.058Z,21.67
2018-06-20T07:35:53.632Z,21.72
2018-06-20T07:36:54.003Z,21.78
2018-06-20T07:37:54.478Z,21.83
2018-06-20T07:38:54.952Z,21.88
2018-06-20T07:39:55.427Z,21.93
2018-06-20T07:40:55.952Z,22.00
2018-06-20T07:41:56.379Z,22.05
2018-06-20T07:42:56.852Z,22.10
2018-06-20T07:43:57.329Z,22.16
2018-06-20T07:44:57.825Z,22.22
2018-06-20T07:45:58.276Z,22.26
2018-06-20T07:46:58.751Z,22.33
2018-06-20T07:47:59.354Z,22.40
2018-06-20T07:48:59.703Z,22.44
2018-06-20T07:50:00.176Z,22.52
2018-06-20T07:51:00.704Z,22.56
2018-06-20T07:52:01.126Z,22.64
2018-06-20T07:53:01.602Z,22.69
2018-06-20T07:54:02.080Z,22.75
2018-06-20T07:55:02.552Z,22.80
2018-06-20T07:56:03.079Z,22.86
2018-06-20T07:57:03.502Z,22.93
2018-06-20T07:58:03.979Z,22.98
2018-06-20T07:59:04.453Z,23.02
2018-06-20T08:00:04.928Z,23.07
2018-06-20T08:01:05.533Z,23.13
2018-06-20T08:02:05.883Z,23.18
2018-06-20T08:03:06.358Z,23.22
2018-06-20T08:04:06.833Z,23.27
2018-06-20T08:05:07.306Z,23.31
2018-06-20T08:06:07.780Z,23.35
2018-06-20T08:07:08.258Z,23.39
2018-06-20T08:08:08.732Z,23.44
2018-06-20T08:09:09.208Z,23.48
2018-06-20T08:10:09.683Z,23.52
2018-06-20T08:11:10.215Z,23.55
2018-06-20T08:12:10.634Z,23.61
2018-06-20T08:13:11.119Z,23.64
2018-06-20T08:14:11.586Z,23.68
2018-06-20T08:15:12.064Z,23.71
2018-06-20T08:16:12.540Z,23.76
2018-06-20T08:17:13.013Z,23.80
2018-06-20T08:18:13.492Z,23.84
2018-06-20T08:19:13.973Z,23.88
2018-06-20T08:20:14.441Z,23.93
2018-06-20T08:21:14.968Z,23.96
2018-06-20T08:22:15.394Z,23.99
2018-06-20T08:23:15.870Z,24.04
2018-06-20T08:24:16.346Z,24.08
2018-06-20T08:25:16.824Z,24.13
2018-06-20T08:26:17.297Z,24.16
2018-06-20T08:27:17.776Z,24.22
2018-06-20T08:28:18.250Z,24.28
2018-06-20T08:29:18.728Z,24.32
2018-06-20T08:30:19.203Z,24.36
2018-06-20T08:31:19.731Z,24.40
2018-06-20T08:32:20.156Z,24.48
2018-06-20T08:33:20.631Z,24.52
2018-06-20T08:34:21.109Z,24.58
2018-06-20T08:35:21.586Z,24.63
2018-06-20T08:36:22.111Z,24.70
2018-06-20T08:37:22.538Z,24.75
2018-06-20T08:38:23.014Z,24.81
2018-06-20T08:39:23.494Z,24.88
2018-06-20T08:40:23.967Z,24.95
2018-06-20T08:41:24.508Z,25.00
2018-06-20T08:42:24.979Z,25.08
2018-06-20T08:43:25.397Z,25.16
2018-06-20T08:44:25.876Z,25.22
2018-06-20T08:45:26.351Z,25.32
2018-06-20T08:46:26.880Z,25.37
2018-06-20T08:47:27.308Z,25.47
2018-06-20T08:48:27.782Z,25.54
2018-06-20T08:49:28.261Z,25.62
2018-06-20T08:50:28.737Z,25.71
2018-06-20T08:51:29.214Z,25.79
2018-06-20T08:52:29.691Z,25.88
2018-06-20T08:53:30.167Z,25.96
2018-06-20T08:54:30.645Z,26.04
2018-06-20T08:55:31.122Z,26.13
2018-06-20T08:56:31.599Z,26.23
2018-06-20T08:57:32.076Z,26.30
2018-06-20T08:58:32.554Z,26.39
2018-06-20T08:59:33.033Z,26.47
2018-06-20T09:00:33.508Z,26.56
2018-06-20T09:01:34.036Z,26.64
2018-06-20T09:02:34.465Z,26.70
2018-06-20T09:03:34.941Z,26.78
2018-06-20T09:04:35.417Z,26.84
2018-06-20T09:05:35.895Z,26.91
2018-06-20T09:06:36.375Z,26.97
2018-06-20T09:07:36.853Z,27.04
2018-06-20T09:08:37.376Z,27.10
2018-06-20T09:09:37.807Z,27.15
2018-06-20T09:10:38.287Z,27.20
2018-06-20T09:11:38.816Z,27.26
2018-06-20T09:12:39.244Z,27.32
2018-06-20T09:13:39.718Z,27.37
2018-06-20T09:14:40.197Z,27.42
2018-06-20T09:15:40.677Z,27.48
2018-06-20T09:16:41.203Z,27.52
2018-06-20T09:17:41.631Z,27.58
2018-06-20T09:18:42.110Z,27.62
2018-06-20T09:19:42.592Z,27.67
2018-06-20T09:20:43.064Z,27.72
2018-06-20T09:21:43.543Z,27.76
2018-06-20T09:22:44.023Z,27.80
2018-06-20T09:23:44.502Z,27.84
2018-06-20T09:24:44.980Z,27.87
2018-06-20T09:25:45.457Z,27.90
2018-06-20T09:26:45.988Z,27.92
2018-06-20T09:27:46.414Z,27.96
2018-06-20T09:28:46.896Z,27.98
2018-06-20T09:29:47.372Z,28.01
2018-06-20T09:30:47.849Z,28.02
2018-06-20T09:31:48.329Z,28.04
2018-06-20T09:32:48.807Z,28.05
2018-06-20T09:33:49.286Z,28.05
2018-06-20T09:34:49.765Z,28.05
2018-06-20T09:35:50.247Z,28.07
2018-06-20T09:36:50.722Z,28.06
2018-06-20T09:37:51.201Z,28.05
2018-06-20T09:38:51.682Z,28.05
2018-06-20T09:39:52.161Z,28.04
2018-06-20T09:40:52.638Z,28.03
2018-06-20T09:41:53.121Z,28.00
2018-06-20T09:42:53.597Z,27.99
2018-06-20T09:43:54.077Z,27.98
2018-06-20T09:44:54.555Z,27.97
2018-06-20T09:45:55.033Z,27.94
2018-06-20T09:46:55.562Z,27.93
2018-06-20T09:47:55.992Z,27.91
2018-06-20T09:48:56.476Z,27.90
2018-06-20T09:49:56.949Z,27.88
2018-06-20T09:50:57.431Z,27.86
2018-06-20T09:51:57.913Z,27.86
2018-06-20T09:52:58.390Z,27.83
2018-06-20T09:53:58.868Z,27.82
2018-06-20T09:54:59.347Z,27.79
2018-06-20T09:55:59.843Z,27.79
2018-06-20T09:57:00.361Z,27.76
2018-06-20T09:58:00.815Z,27.75
2018-06-20T09:59:01.268Z,27.72
2018-06-20T10:00:01.747Z,27.69
2018-06-20T10:01:02.230Z,27.68
2018-06-20T10:02:02.711Z,27.66
2018-06-20T10:03:03.187Z,27.64
2018-06-20T10:04:03.673Z,27.61
2018-06-20T10:05:04.144Z,27.58
2018-06-20T10:06:04.626Z,27.56
2018-06-20T10:07:05.106Z,27.54
2018-06-20T10:08:05.592Z,27.53
2018-06-20T10:09:06.066Z,27.51
2018-06-20T10:10:06.546Z,27.50
2018-06-20T10:11:07.068Z,27.48
2018-06-20T10:12:07.506Z,27.44
2018-06-20T10:13:08.012Z,27.42
2018-06-20T10:14:08.464Z,27.40
2018-06-20T10:15:08.945Z,27.39
2018-06-20T10:16:09.425Z,27.38
2018-06-20T10:17:09.956Z,27.37
2018-06-20T10:18:10.386Z,27.34
2018-06-20T10:19:10.866Z,27.34
2018-06-20T10:20:11.348Z,27.32
2018-06-20T10:21:11.859Z,27.32
2018-06-20T10:22:12.307Z,27.29
2018-06-20T10:23:12.786Z,27.29
2018-06-20T10:24:13.266Z,27.27
2018-06-20T10:25:13.746Z,27.25
2018-06-20T10:26:14.228Z,27.25
2018-06-20T10:27:14.708Z,27.25
2018-06-20T10:28:15.186Z,27.23
2018-06-20T10:29:15.668Z,27.22
2018-06-20T10:30:16.156Z,27.23
2018-06-20T10:31:16.633Z,27.22
2018-06-20T10:32:17.113Z,27.21
2018-06-20T10:33:17.591Z,27.22
2018-06-20T10:34:18.121Z,27.23
2018-06-20T10:35:18.552Z,27.22
2018-06-20T10:36:19.034Z,27.22
2018-06-20T10:37:19.513Z,27.22
2018-06-20T10:38:20.000Z,27.23
2018-06-20T10:39:20.474Z,27.24
2018-06-20T10:40:20.956Z,27.24
2018-06-20T10:41:21.437Z,27.24
2018-06-20T10:42:21.966Z,27.24
2018-06-20T10:43:22.397Z,27.24
2018-06-20T10:44:22.880Z,27.26
2018-06-20T10:45:23.358Z,27.26
2018-06-20T10:46:23.856Z,27.26
2018-06-20T10:47:24.370Z,27.27
2018-06-20T10:48:24.802Z,27.28
2018-06-20T10:49:25.307Z,27.29
2018-06-20T10:50:25.764Z,27.30
2018-06-20T10:51:26.248Z,27.30
2018-06-20T10:52:26.781Z,27.32
2018-06-20T10:53:27.206Z,27.32
2018-06-20T10:54:27.697Z,27.33
2018-06-20T10:55:28.166Z,27.34
2018-06-20T10:56:28.647Z,27.34
2018-06-20T10:57:29.178Z,27.36
2018-06-20T10:58:29.612Z,27.38
2018-06-20T10:59:30.090Z,27.37
2018-06-20T11:00:30.571Z,27.40
2018-06-20T11:01:31.052Z,27.42
2018-06-20T11:02:31.533Z,27.44
2018-06-20T11:03:32.018Z,27.45
2018-06-20T11:04:32.496Z,27.46
2018-06-20T11:05:32.977Z,27.47
2018-06-20T11:06:33.464Z,27.48
2018-06-20T11:07:33.940Z,27.48
2018-06-20T11:08:34.420Z,27.48
2018-06-20T11:09:34.936Z,27.50
2018-06-20T11:10:35.386Z,27.50
2018-06-20T11:11:35.866Z,27.51
2018-06-20T11:12:36.344Z,27.53
2018-06-20T11:13:36.825Z,27.54
2018-06-20T11:14:37.308Z,27.54
2018-06-20T11:15:37.792Z,27.56
2018-06-20T11:16:38.271Z,27.55
2018-06-20T11:17:38.751Z,27.55
2018-06-20T11:18:39.233Z,27.57
2018-06-20T11:19:39.714Z,27.59
2018-06-20T11:20:40.196Z,27.60
2018-06-20T11:21:40.675Z,27.64
2018-06-20T11:22:41.159Z,27.62
2018-06-20T11:23:41.641Z,27.64
2018-06-20T11:24:42.121Z,27.65
2018-06-20T11:25:42.606Z,27.65
2018-06-20T11:26:43.088Z,27.66
2018-06-20T11:27:43.565Z,27.66
2018-06-20T11:28:44.050Z,27.68
2018-06-20T11:29:44.532Z,27.68
2018-06-20T11:30:45.012Z,27.68
2018-06-20T11:31:45.492Z,27.70
2018-06-20T11:32:46.030Z,27.71
2018-06-20T11:33:46.455Z,27.73
2018-06-20T11:34:46.941Z,27.72
2018-06-20T11:35:47.418Z,27.74
2018-06-20T11:36:47.904Z,27.76
2018-06-20T11:37:48.433Z,27.75
2018-06-20T11:38:48.865Z,27.76
2018-06-20T11:39:49.346Z,27.78
2018-06-20T11:40:49.831Z,27.78
2018-06-20T11:41:50.310Z,27.78
2018-06-20T11:42:50.794Z,27.79
2018-06-20T11:43:51.272Z,27.80
2018-06-20T11:44:51.756Z,27.80
2018-06-20T11:45:52.277Z,27.83
2018-06-20T11:46:52.719Z,27.82
2018-06-20T11:47:53.252Z,27.84
2018-06-20T11:48:53.684Z,27.84
2018-06-20T11:49:54.167Z,27.85
2018-06-20T11:50:54.647Z,27.86
2018-06-20T11:51:55.128Z,27.86
2018-06-20T11:52:55.611Z,27.86
2018-06-20T11:53:56.092Z,27.87
2018-06-20T11:54:56.574Z,27.86
2018-06-20T11:55:57.057Z,27.89
2018-06-20T11:56:57.539Z,27.88
2018-06-20T11:57:58.080Z,27.89
2018-06-20T11:58:58.505Z,27.89
2018-06-20T11:59:58.984Z,27.90
2018-06-20T12:00:59.467Z,27.92
2018-06-20T12:01:59.949Z,27.92
2018-06-20T12:03:00.431Z,27.92
2018-06-20T12:04:00.948Z,27.92
2018-06-20T12:05:01.402Z,27.91
2018-06-20T12:06:01.881Z,27.93
2018-06-20T12:07:02.358Z,27.93
2018-06-20T12:08:02.840Z,27.95
2018-06-20T12:09:03.323Z,27.95
2018-06-20T12:10:03.806Z,27.96
2018-06-20T12:11:04.287Z,27.96
2018-06-20T12:12:04.769Z,27.98
2018-06-20T12:13:05.306Z,27.96
2018-06-20T12:14:05.735Z,27.96
2018-06-20T12:15:06.216Z,27.98
2018-06-20T12:16:06.701Z,27.98
2018-06-20T12:17:07.182Z,27.98
2018-06-20T12:18:07.662Z,28.00
2018-06-20T12:19:08.148Z,27.99
2018-06-20T12:20:08.629Z,27.99
2018-06-20T12:21:09.113Z,28.00
2018-06-20T12:22:09.595Z,28.00
2018-06-20T12:23:10.128Z,28.02
2018-06-20T12:24:10.558Z,28.02
2018-06-20T12:25:11.040Z,28.04
2018-06-20T12:26:11.521Z,28.02
2018-06-20T12:27:12.005Z,28.04
2018-06-20T12:28:12.583Z,28.05
2018-06-20T12:29:12.974Z,28.05
2018-06-20T12:30:13.452Z,28.06
2018-06-20T12:31:13.935Z,28.08
2018-06-20T12:32:14.417Z,28.08
2018-06-20T12:33:14.950Z,28.08
2018-06-20T12:34:15.380Z,28.07
2018-06-20T12:35:15.866Z,28.08
2018-06-20T12:36:16.349Z,28.10
2018-06-20T12:37:16.829Z,28.10
2018-06-20T12:38:17.311Z,28.10
2018-06-20T12:39:17.795Z,28.11
2018-06-20T12:40:18.277Z,28.13
2018-06-20T12:41:18.760Z,28.14
2018-06-20T12:42:19.242Z,28.13
2018-06-20T12:43:19.776Z,28.15
2018-06-20T12:44:20.211Z,28.14
2018-06-20T12:45:20.711Z,28.16
2018-06-20T12:46:21.172Z,28.16
2018-06-20T12:47:21.654Z,28.17
2018-06-20T12:48:22.141Z,28.17
2018-06-20T12:49:22.622Z,28.18
2018-06-20T12:50:23.103Z,28.18
2018-06-20T12:51:23.589Z,28.19
2018-06-20T12:52:24.074Z,28.20
2018-06-20T12:53:24.611Z,28.20
2018-06-20T12:54:25.036Z,28.22
2018-06-20T12:55:25.518Z,28.21
2018-06-20T12:56:26.004Z,28.22
2018-06-20T12:57:26.484Z,28.22
2018-06-20T12:58:27.016Z,28.22
2018-06-20T12:59:27.448Z,28.23